createdAt,value
2023-04-19T00:02:50.103Z,3.57
2023-04-19T00:05:40.086Z,3.40
2023-04-19T00:08:21.722Z,2.92
2023-04-19T00:13:26.678Z,3.20
2023-04-19T00:15:59.136Z,3.15
2023-04-19T00:18:31.697Z,2.78
2023-04-19T00:21:04.691Z,3.00
2023-04-19T00:23:37.174Z,3.28
2023-04-19T00:26:11.681Z,2.90
2023-04-19T00:28:45.262Z,2.80
2023-04-19T00:31:17.852Z,3.17
2023-04-19T00:33:50.475Z,2.95
2023-04-19T00:36:24.407Z,2.90
2023-04-19T00:38:57.053Z,3.25
2023-04-19T00:41:29.578Z,2.92
2023-04-19T00:44:03.473Z,3.28
2023-04-19T00:46:38.021Z,2.97
2023-04-19T00:49:10.900Z,2.83
2023-04-19T00:51:43.979Z,2.78
2023-04-19T00:54:17.491Z,2.95
2023-04-19T00:56:50.482Z,3.03
2023-04-19T00:59:24.567Z,4.35
2023-04-19T01:01:57.217Z,2.92
2023-04-19T01:04:30.155Z,2.75
2023-04-19T01:07:03.451Z,2.63
2023-04-19T01:12:08.514Z,2.88
2023-04-19T01:14:41.491Z,3.30
2023-04-19T01:17:15.277Z,3.17
2023-04-19T01:19:47.906Z,3.10
2023-04-19T01:22:23.329Z,3.10
2023-04-19T01:24:56.327Z,3.00
2023-04-19T01:27:28.848Z,3.10
2023-04-19T01:30:03.420Z,3.30
2023-04-19T01:32:35.978Z,3.38
2023-04-19T01:35:11.419Z,3.50
2023-04-19T01:37:44.038Z,3.30
2023-04-19T01:40:16.871Z,3.45
2023-04-19T01:42:49.459Z,2.92
2023-04-19T01:45:22.040Z,2.97
2023-04-19T01:47:57.016Z,2.85
2023-04-19T01:50:29.650Z,3.10
2023-04-19T01:53:02.251Z,3.20
2023-04-19T01:55:35.174Z,3.67
2023-04-19T01:58:07.819Z,2.88
2023-04-19T02:00:40.446Z,3.00
2023-04-19T02:03:13.207Z,2.08
2023-04-19T02:05:45.879Z,1.95
2023-04-19T02:08:18.387Z,2.42
2023-04-19T02:10:50.839Z,2.30
2023-04-19T02:13:23.419Z,2.53
2023-04-19T02:15:56.023Z,2.53
2023-04-19T02:18:32.207Z,2.65
2023-04-19T02:21:06.096Z,2.20
2023-04-19T02:23:38.773Z,2.30
2023-04-19T02:26:11.696Z,2.40
2023-04-19T02:28:44.268Z,2.75
2023-04-19T02:31:18.262Z,2.35
2023-04-19T02:33:50.995Z,2.45
2023-04-19T02:36:23.585Z,2.40
2023-04-19T02:38:56.184Z,2.40
2023-04-19T02:41:28.718Z,2.33
2023-04-19T02:44:01.161Z,2.30
2023-04-19T02:46:33.801Z,2.35
2023-04-19T02:49:06.501Z,2.05
2023-04-19T02:51:39.071Z,2.45
2023-04-19T02:54:13.089Z,2.50
2023-04-19T02:56:47.571Z,2.15
2023-04-19T02:59:21.264Z,2.47
2023-04-19T03:01:53.852Z,2.35
2023-04-19T03:04:27.377Z,2.97
2023-04-19T03:07:00.773Z,3.05
2023-04-19T03:09:33.481Z,3.15
2023-04-19T03:12:07.823Z,3.47
2023-04-19T03:14:40.613Z,3.05
2023-04-19T03:17:13.330Z,4.20
2023-04-19T03:19:45.944Z,3.50
2023-04-19T03:22:19.030Z,3.42
2023-04-19T03:24:51.716Z,3.03
2023-04-19T03:27:30.239Z,2.90
2023-04-19T03:30:07.867Z,2.75
2023-04-19T03:32:40.454Z,3.53
2023-04-19T03:35:14.090Z,3.00
2023-04-19T03:37:46.604Z,2.95
2023-04-19T03:40:19.453Z,3.40
2023-04-19T03:42:52.162Z,3.25
2023-04-19T03:45:34.823Z,3.27
2023-04-19T03:48:07.601Z,3.42
2023-04-19T03:50:40.776Z,3.00
2023-04-19T03:53:19.294Z,3.15
2023-04-19T03:55:51.797Z,3.28
2023-04-19T03:58:24.403Z,4.07
2023-04-19T04:01:04.364Z,2.70
2023-04-19T04:03:37.132Z,3.15
2023-04-19T04:08:42.560Z,3.78
2023-04-19T04:11:15.463Z,3.50
2023-04-19T04:13:50.634Z,2.85
2023-04-19T04:16:31.147Z,3.45
2023-04-19T04:19:03.691Z,3.47
2023-04-19T04:21:39.126Z,3.03
2023-04-19T04:24:12.917Z,3.17
2023-04-19T04:27:01.093Z,3.03
2023-04-19T04:29:39.440Z,3.33
2023-04-19T04:32:14.549Z,4.60
2023-04-19T04:34:48.108Z,4.18
2023-04-19T04:37:34.256Z,3.45
2023-04-19T04:40:08.389Z,4.00
2023-04-19T04:42:41.064Z,3.53
2023-04-19T04:45:13.682Z,4.30
2023-04-19T04:47:49.419Z,4.03
2023-04-19T04:50:22.430Z,3.60
2023-04-19T04:55:34.266Z,4.13
2023-04-19T04:58:07.352Z,5.15
2023-04-19T05:01:00.097Z,4.10
2023-04-19T05:03:33.669Z,3.97
2023-04-19T05:06:08.867Z,3.65
2023-04-19T05:08:42.079Z,3.35
2023-04-19T05:11:21.777Z,3.03
2023-04-19T05:13:54.563Z,3.63
2023-04-19T05:19:00.928Z,3.17
2023-04-19T05:21:37.251Z,3.60
2023-04-19T05:24:11.119Z,3.85
2023-04-19T05:29:17.990Z,5.20
2023-04-19T05:31:55.907Z,4.60
2023-04-19T05:34:36.268Z,4.90
2023-04-19T05:37:09.859Z,4.10
2023-04-19T05:39:44.468Z,3.78
2023-04-19T05:42:17.533Z,3.53
2023-04-19T05:44:50.283Z,3.50
2023-04-19T05:47:22.995Z,3.40
2023-04-19T05:50:09.999Z,3.88
2023-04-19T05:52:52.543Z,3.13
2023-04-19T05:55:25.154Z,4.03
2023-04-19T05:57:58.852Z,3.50
2023-04-19T06:00:32.918Z,3.55
2023-04-19T06:03:13.671Z,2.97
2023-04-19T06:05:46.517Z,2.50
2023-04-19T06:08:19.430Z,2.20
2023-04-19T06:10:57.102Z,2.03
2023-04-19T06:13:36.215Z,2.03
2023-04-19T06:18:43.553Z,2.00
2023-04-19T06:21:16.236Z,1.60
2023-04-19T06:23:48.716Z,2.28
2023-04-19T06:26:21.853Z,2.17
2023-04-19T06:28:54.434Z,2.05
2023-04-19T06:31:27.400Z,2.15
2023-04-19T06:34:00.074Z,2.00
2023-04-19T06:36:33.599Z,1.90
2023-04-19T06:39:06.246Z,2.33
2023-04-19T06:41:38.748Z,2.30
2023-04-19T06:46:44.514Z,2.58
2023-04-19T06:49:17.131Z,2.40
2023-04-19T06:51:49.928Z,2.17
2023-04-19T06:54:22.545Z,2.17
2023-04-19T06:56:55.042Z,2.00
2023-04-19T06:59:28.566Z,2.15
2023-04-19T07:02:01.190Z,1.65
2023-04-19T07:04:33.930Z,1.90
2023-04-19T07:07:06.902Z,2.05
2023-04-19T07:09:39.457Z,2.13
2023-04-19T07:12:11.917Z,1.98
2023-04-19T07:14:44.538Z,1.55
2023-04-19T07:17:18.461Z,1.80
2023-04-19T07:19:51.327Z,2.00
2023-04-19T07:22:23.804Z,1.85
2023-04-19T07:24:56.353Z,2.10
2023-04-19T07:27:28.882Z,1.88
2023-04-19T07:30:01.554Z,2.05
2023-04-19T07:32:34.288Z,1.70
2023-04-19T07:35:07.395Z,1.98
2023-04-19T07:37:39.977Z,1.70
2023-04-19T07:40:15.131Z,1.40
2023-04-19T07:42:47.660Z,2.08
2023-04-19T07:45:20.122Z,1.83
2023-04-19T07:47:52.896Z,2.00
2023-04-19T07:50:28.738Z,1.50
2023-04-19T07:53:01.353Z,1.67
2023-04-19T07:55:34.054Z,1.67
2023-04-19T07:58:06.599Z,1.80
2023-04-19T08:00:39.174Z,1.85
2023-04-19T08:03:11.911Z,1.50
2023-04-19T08:08:17.278Z,1.67
2023-04-19T08:10:49.941Z,1.90
2023-04-19T08:13:22.496Z,1.65
2023-04-19T08:18:31.135Z,1.17
2023-04-19T08:21:10.129Z,1.58
2023-04-19T08:23:56.581Z,1.60
2023-04-19T08:27:00.367Z,1.65
2023-04-19T08:29:45.863Z,2.72
2023-04-19T08:32:21.343Z,1.90
2023-04-19T08:34:54.266Z,2.20
2023-04-19T08:37:27.019Z,2.35
2023-04-19T08:39:59.557Z,2.58
2023-04-19T08:42:36.883Z,2.60
2023-04-19T08:45:26.789Z,2.28
2023-04-19T08:48:02.821Z,2.20
2023-04-19T08:50:48.492Z,2.20
2023-04-19T08:53:33.506Z,2.50
2023-04-19T08:56:17.966Z,2.90
2023-04-19T08:59:11.535Z,2.55
2023-04-19T09:01:48.110Z,2.67
2023-04-19T09:04:34.531Z,2.78
2023-04-19T09:07:08.735Z,3.00
2023-04-19T09:09:51.958Z,3.00
2023-04-19T09:15:09.509Z,2.72
2023-04-19T09:17:42.273Z,2.72
2023-04-19T09:20:14.848Z,2.15
2023-04-19T09:23:05.609Z,2.60
2023-04-19T09:26:11.401Z,2.65
2023-04-19T09:28:35.632Z,3.08
2023-04-19T09:31:35.391Z,2.53
2023-04-19T09:34:17.503Z,4.05
2023-04-19T09:36:54.622Z,3.28
2023-04-19T09:42:07.276Z,2.75
2023-04-19T09:47:30.328Z,2.90
2023-04-19T09:50:21.212Z,2.83
2023-04-19T09:52:56.296Z,3.30
2023-04-19T09:55:30.372Z,2.88
2023-04-19T09:58:08.341Z,2.97
2023-04-19T10:00:49.019Z,2.67
2023-04-19T10:03:28.115Z,3.40
2023-04-19T10:06:10.242Z,3.10
2023-04-19T10:08:50.473Z,3.85
2023-04-19T10:11:23.794Z,2.45
2023-04-19T10:14:00.414Z,2.65
2023-04-19T10:16:33.750Z,3.25
2023-04-19T10:19:14.244Z,2.88
2023-04-19T10:21:49.017Z,2.85
2023-04-19T10:24:24.552Z,3.00
2023-04-19T10:27:08.991Z,3.13
2023-04-19T10:30:00.303Z,3.30
2023-04-19T10:32:41.356Z,2.55
2023-04-19T10:35:24.942Z,2.83
2023-04-19T10:38:09.462Z,3.22
2023-04-19T10:41:01.977Z,2.97
2023-04-19T10:43:35.550Z,2.70
2023-04-19T10:46:36.330Z,2.88
2023-04-19T10:49:10.292Z,2.83
2023-04-19T10:51:51.326Z,3.17
2023-04-19T10:54:39.072Z,3.25
2023-04-19T10:57:11.932Z,3.03
2023-04-19T10:59:44.749Z,3.03
2023-04-19T11:02:23.514Z,2.83
2023-04-19T11:04:56.203Z,2.70
2023-04-19T11:07:28.794Z,2.90
2023-04-19T11:10:01.327Z,2.30
2023-04-19T11:12:34.978Z,2.40
2023-04-19T11:15:10.173Z,2.30
2023-04-19T11:17:42.888Z,2.20
2023-04-19T11:20:15.596Z,2.55
2023-04-19T11:22:48.253Z,1.73
2023-04-19T11:25:22.434Z,1.90
2023-04-19T11:27:56.012Z,2.10
2023-04-19T11:30:35.251Z,1.88
2023-04-19T11:33:07.863Z,1.90
2023-04-19T11:35:41.710Z,2.20
2023-04-19T11:38:14.368Z,2.20
2023-04-19T11:40:58.387Z,1.95
2023-04-19T11:43:37.879Z,2.00
2023-04-19T11:46:12.272Z,1.73
2023-04-19T11:48:54.990Z,2.97
2023-04-19T11:51:27.626Z,2.25
2023-04-19T11:54:00.163Z,2.10
2023-04-19T11:56:32.732Z,1.98
2023-04-19T11:59:09.554Z,2.67
2023-04-19T12:01:42.430Z,2.63
2023-04-19T12:04:15.739Z,2.28
2023-04-19T12:07:00.521Z,1.95
2023-04-19T12:09:37.088Z,2.20
2023-04-19T12:12:09.592Z,1.95
2023-04-19T12:14:52.535Z,2.33
2023-04-19T12:17:25.081Z,2.13
2023-04-19T12:19:57.648Z,2.78
2023-04-19T12:22:30.164Z,2.45
2023-04-19T12:25:02.806Z,2.10
2023-04-19T12:27:35.524Z,2.10
2023-04-19T12:30:10.075Z,2.40
2023-04-19T12:32:42.667Z,1.95
2023-04-19T12:35:15.223Z,2.30
2023-04-19T12:37:47.857Z,2.75
2023-04-19T12:40:20.788Z,2.28
2023-04-19T12:42:54.181Z,2.20
2023-04-19T12:45:27.117Z,2.05
2023-04-19T12:47:59.755Z,2.33
2023-04-19T12:50:32.383Z,2.50
2023-04-19T12:53:05.314Z,2.25
2023-04-19T12:55:37.831Z,2.30
2023-04-19T12:58:10.537Z,2.35
2023-04-19T13:00:43.247Z,2.25
2023-04-19T13:03:16.522Z,2.20
2023-04-19T13:05:49.393Z,2.10
2023-04-19T13:08:30.967Z,2.25
2023-04-19T13:11:14.490Z,2.30
2023-04-19T13:13:46.996Z,2.25
2023-04-19T13:16:20.193Z,2.22
2023-04-19T13:21:28.162Z,2.40
2023-04-19T13:24:00.876Z,2.10
2023-04-19T13:26:34.631Z,2.10
2023-04-19T13:29:10.388Z,2.40
2023-04-19T13:31:43.945Z,2.28
2023-04-19T13:34:16.971Z,2.20
2023-04-19T13:36:51.509Z,1.92
2023-04-19T13:39:24.116Z,2.30
2023-04-19T13:41:56.961Z,2.10
2023-04-19T13:44:29.723Z,2.20
2023-04-19T13:47:02.582Z,2.42
2023-04-19T13:49:35.230Z,2.05
2023-04-19T13:52:07.795Z,1.88
2023-04-19T13:54:40.279Z,2.00
2023-04-19T13:57:13.131Z,2.03
2023-04-19T13:59:45.767Z,2.17
2023-04-19T14:02:18.357Z,1.83
2023-04-19T14:04:51.312Z,2.30
2023-04-19T14:07:23.792Z,2.40
2023-04-19T14:09:56.297Z,2.05
2023-04-19T14:12:28.863Z,2.47
2023-04-19T14:15:01.558Z,2.40
2023-04-19T14:17:36.166Z,2.00
2023-04-19T14:20:09.209Z,2.35
2023-04-19T14:22:41.991Z,2.20
2023-04-19T14:25:18.381Z,2.45
2023-04-19T14:27:50.923Z,2.40
2023-04-19T14:30:26.198Z,2.47
2023-04-19T14:32:58.842Z,2.03
2023-04-19T14:35:31.761Z,2.75
2023-04-19T14:38:04.253Z,2.53
2023-04-19T14:40:36.977Z,2.28
2023-04-19T14:43:11.649Z,2.40
2023-04-19T14:45:44.182Z,2.65
2023-04-19T14:48:16.675Z,2.53
2023-04-19T14:50:49.389Z,2.67
2023-04-19T14:53:21.841Z,2.47
2023-04-19T14:55:54.340Z,2.15
2023-04-19T14:58:27.007Z,2.35
2023-04-19T15:00:59.924Z,2.50
2023-04-19T15:03:33.063Z,2.65
2023-04-19T15:08:38.177Z,2.47
2023-04-19T15:11:10.737Z,2.20
2023-04-19T15:13:43.205Z,2.15
2023-04-19T15:16:15.842Z,2.20
2023-04-19T15:18:48.424Z,2.33
2023-04-19T15:21:24.672Z,2.50
2023-04-19T15:23:57.430Z,2.20
2023-04-19T15:26:30.030Z,2.33
2023-04-19T15:29:02.641Z,2.17
2023-04-19T15:31:35.185Z,2.53
2023-04-19T15:34:07.974Z,2.90
2023-04-19T15:36:41.310Z,2.33
2023-04-19T15:39:13.964Z,2.20
2023-04-19T15:41:46.719Z,2.30
2023-04-19T15:44:19.397Z,2.33
2023-04-19T15:46:52.104Z,2.28
2023-04-19T15:49:24.665Z,2.28
2023-04-19T15:51:57.407Z,2.13
2023-04-19T15:54:30.104Z,2.42
2023-04-19T15:57:02.726Z,2.30
2023-04-19T15:59:35.349Z,2.33
2023-04-19T16:02:08.138Z,2.45
2023-04-19T16:04:41.053Z,3.17
2023-04-19T16:07:13.847Z,2.15
2023-04-19T16:09:46.289Z,2.00
2023-04-19T16:12:18.960Z,1.92
2023-04-19T16:14:52.504Z,2.22
2023-04-19T16:17:25.159Z,2.20
2023-04-19T16:19:58.313Z,2.25
2023-04-19T16:25:04.110Z,2.42
2023-04-19T16:27:36.657Z,2.72
2023-04-19T16:30:10.774Z,2.30
2023-04-19T16:32:43.961Z,2.42
2023-04-19T16:35:18.615Z,2.67
2023-04-19T16:37:51.803Z,2.30
2023-04-19T16:43:01.124Z,2.50
2023-04-19T16:45:33.951Z,2.70
2023-04-19T16:48:06.635Z,2.08
2023-04-19T16:50:39.286Z,2.40
2023-04-19T16:53:12.016Z,2.28
2023-04-19T16:55:44.593Z,2.17
2023-04-19T16:58:17.211Z,2.30
2023-04-19T17:00:49.738Z,2.53
2023-04-19T17:03:22.551Z,2.30
2023-04-19T17:05:55.510Z,2.60
2023-04-19T17:08:28.100Z,2.28
2023-04-19T17:11:00.745Z,3.53
2023-04-19T17:13:33.351Z,2.65
2023-04-19T17:16:06.311Z,3.13
2023-04-19T17:18:39.566Z,2.90
2023-04-19T17:21:13.251Z,3.53
2023-04-19T17:23:46.770Z,2.20
2023-04-19T17:26:19.348Z,2.92
2023-04-19T17:28:51.816Z,2.10
2023-04-19T17:31:24.475Z,2.50
2023-04-19T17:33:57.079Z,2.97
2023-04-19T17:36:29.623Z,2.40
2023-04-19T17:39:02.233Z,2.75
2023-04-19T17:41:35.101Z,2.80
2023-04-19T17:44:07.712Z,2.47
2023-04-19T17:46:40.714Z,2.40
2023-04-19T17:49:13.321Z,2.75
2023-04-19T17:51:46.401Z,2.70
2023-04-19T17:56:53.320Z,2.72
2023-04-19T17:59:25.979Z,3.38
2023-04-19T18:01:58.575Z,2.65
2023-04-19T18:04:31.267Z,2.72
2023-04-19T18:07:03.904Z,2.58
2023-04-19T18:09:36.369Z,2.40
2023-04-19T18:12:08.960Z,2.70
2023-04-19T18:14:41.601Z,2.72
2023-04-19T18:17:14.140Z,2.47
2023-04-19T18:19:46.636Z,2.70
2023-04-19T18:22:19.212Z,2.67
2023-04-19T18:24:53.643Z,2.50
2023-04-19T18:27:26.561Z,3.10
2023-04-19T18:29:59.009Z,2.90
2023-04-19T18:32:32.344Z,2.80
2023-04-19T18:35:05.540Z,3.35
2023-04-19T18:40:11.104Z,3.13
2023-04-19T18:45:16.188Z,2.90
2023-04-19T18:47:48.720Z,3.10
2023-04-19T18:50:21.428Z,3.42
2023-04-19T18:52:53.945Z,3.03
2023-04-19T18:55:26.943Z,3.10
2023-04-19T18:58:01.422Z,3.38
2023-04-19T19:00:34.159Z,3.15
2023-04-19T19:03:09.409Z,3.70
2023-04-19T19:05:58.129Z,2.78
2023-04-19T19:08:31.223Z,3.17
2023-04-19T19:13:39.918Z,3.70
2023-04-19T19:18:44.938Z,3.30
2023-04-19T19:21:18.865Z,2.75
2023-04-19T19:23:54.613Z,2.92
2023-04-19T19:26:28.525Z,3.30
2023-04-19T19:29:01.441Z,3.20
2023-04-19T19:31:34.460Z,3.20
2023-04-19T19:34:23.501Z,3.38
2023-04-19T19:37:00.035Z,3.63
2023-04-19T19:39:32.811Z,2.95
2023-04-19T19:42:06.814Z,3.65
2023-04-19T19:44:40.300Z,3.13
2023-04-19T19:47:17.227Z,4.00
2023-04-19T19:50:31.347Z,3.55
2023-04-19T19:52:45.897Z,3.20
2023-04-19T19:55:19.527Z,3.35
2023-04-19T20:03:06.654Z,3.25
2023-04-19T20:05:41.110Z,3.00
2023-04-19T20:08:14.855Z,3.63
2023-04-19T20:10:48.091Z,3.90
2023-04-19T20:15:53.680Z,3.63
2023-04-19T20:18:26.778Z,3.67
2023-04-19T20:26:06.346Z,3.72
2023-04-19T20:28:40.252Z,3.17
2023-04-19T20:31:13.291Z,3.40
2023-04-19T20:33:47.472Z,3.50
2023-04-19T20:36:23.630Z,3.50
2023-04-19T20:38:57.130Z,3.78
2023-04-19T20:41:30.415Z,3.92
2023-04-19T20:44:04.884Z,4.03
2023-04-19T20:46:37.653Z,3.90
2023-04-19T20:49:10.893Z,4.10
2023-04-19T20:51:45.029Z,4.68
2023-04-19T20:54:19.540Z,4.40
2023-04-19T20:56:54.081Z,4.15
2023-04-19T20:59:26.577Z,4.05
2023-04-19T21:02:00.274Z,4.30
2023-04-19T21:04:33.282Z,3.88
2023-04-19T21:07:05.907Z,4.00
2023-04-19T21:09:38.491Z,4.20
2023-04-19T21:12:11.082Z,3.85
2023-04-19T21:14:46.559Z,3.42
2023-04-19T21:17:21.162Z,3.92
2023-04-19T21:19:53.822Z,4.13
2023-04-19T21:22:26.498Z,3.45
2023-04-19T21:24:58.998Z,4.20
2023-04-19T21:27:34.356Z,3.30
2023-04-19T21:30:08.210Z,3.58
2023-04-19T21:32:40.929Z,3.65
2023-04-19T21:35:13.485Z,3.90
2023-04-19T21:37:46.137Z,4.05
2023-04-19T21:40:18.655Z,3.55
2023-04-19T21:42:51.139Z,3.55
2023-04-19T21:45:23.790Z,3.60
2023-04-19T21:47:56.420Z,4.22
2023-04-19T21:50:29.015Z,5.28
2023-04-19T21:53:01.568Z,4.88
2023-04-19T21:55:34.770Z,3.97
2023-04-19T22:00:39.886Z,3.92
2023-04-19T22:03:12.713Z,3.67
2023-04-19T22:05:49.008Z,4.10
2023-04-19T22:08:22.399Z,4.03
2023-04-19T22:10:58.469Z,3.33
2023-04-19T22:13:33.737Z,3.60
2023-04-19T22:16:06.663Z,3.05
2023-04-19T22:18:41.616Z,3.35
2023-04-19T22:21:14.354Z,3.30
2023-04-19T22:23:46.830Z,3.22
2023-04-19T22:26:21.334Z,3.33
2023-04-19T22:28:54.651Z,3.10
2023-04-19T22:31:27.264Z,3.28
2023-04-19T22:33:59.879Z,3.42
2023-04-19T22:36:32.462Z,3.40
2023-04-19T22:39:05.046Z,4.22
2023-04-19T22:41:37.511Z,3.55
2023-04-19T22:44:09.966Z,4.28
2023-04-19T22:46:42.531Z,3.65
2023-04-19T22:49:15.234Z,3.63
2023-04-19T22:51:48.210Z,4.15
2023-04-19T22:54:20.994Z,4.70
2023-04-19T22:56:53.537Z,3.55
2023-04-19T22:59:26.171Z,3.63
2023-04-19T23:01:58.785Z,3.85
2023-04-19T23:04:38.380Z,2.72
2023-04-19T23:07:10.936Z,3.28
2023-04-19T23:09:43.556Z,3.47
2023-04-19T23:12:16.196Z,3.80
2023-04-19T23:14:49.446Z,3.08
2023-04-19T23:19:54.335Z,3.22
2023-04-19T23:22:27.113Z,3.30
2023-04-19T23:24:59.593Z,3.40
2023-04-19T23:27:36.513Z,3.22
2023-04-19T23:30:09.302Z,3.13
2023-04-19T23:32:42.112Z,3.08
2023-04-19T23:35:14.805Z,2.97
2023-04-19T23:37:47.313Z,2.65
2023-04-19T23:40:20.559Z,2.53
2023-04-19T23:42:53.194Z,2.53
2023-04-19T23:45:25.774Z,2.78
2023-04-19T23:47:58.386Z,2.20
2023-04-19T23:50:30.896Z,2.58
2023-04-19T23:53:04.698Z,2.95
2023-04-19T23:55:38.457Z,2.10
2023-04-19T23:58:11.108Z,2.70
